Time;durP1;ratioP1;P1;durP2;ratioP2;P2;SDS_P1;SDS_P2;PMS_P1;PMS_P2;Temp;Humidity;BMP_temperature;BMP_pressure;BME280_temperature;BME280_humidity;BME280_pressure;Samples;Min_cycle;Max_cycle;Signal;HPM_P1;HPM_P2
2021/10/16 00:00:11;;;;;;;16.55;3.70;;;;;;;5.12;83.94;101986.09;5008365;28;20034;-73
2021/10/16 00:02:39;;;;;;;12.35;3.55;;;;;;;5.09;84.15;101994.00;5001533;28;20237;-73
2021/10/16 00:05:05;;;;;;;11.27;3.30;;;;;;;5.04;83.85;101986.53;5006376;28;20048;-73
2021/10/16 00:07:32;;;;;;;13.68;4.78;;;;;;;5.03;83.49;101990.06;5016886;28;20125;-73
2021/10/16 00:09:58;;;;;;;13.10;4.00;;;;;;;5.01;83.81;101988.47;5013025;28;20033;-73
2021/10/16 00:12:24;;;;;;;11.75;4.05;;;;;;;4.96;83.78;101990.50;5005085;28;20306;-73
2021/10/16 00:14:50;;;;;;;11.82;3.50;;;;;;;4.91;83.89;101992.50;5010501;28;20474;-73
2021/10/16 00:17:15;;;;;;;14.70;3.95;;;;;;;4.86;83.63;101995.38;5003950;28;20034;-73
2021/10/16 00:19:41;;;;;;;11.90;3.17;;;;;;;4.81;83.84;101993.03;5013044;28;20041;-73
2021/10/16 00:22:07;;;;;;;11.43;3.72;;;;;;;4.78;83.68;102000.09;5022422;28;20025;-73
2021/10/16 00:24:33;;;;;;;14.55;3.83;;;;;;;4.77;83.70;101991.56;5028130;28;20103;-74
2021/10/16 00:26:59;;;;;;;10.43;3.67;;;;;;;4.70;84.00;101997.97;5014173;28;20121;-73
2021/10/16 00:29:25;;;;;;;13.55;4.00;;;;;;;4.71;84.39;101993.66;5008742;28;20563;-73
2021/10/16 00:31:52;;;;;;;9.35;4.05;;;;;;;4.70;84.16;101992.03;5004950;28;20040;-73
2021/10/16 00:34:18;;;;;;;9.18;3.65;;;;;;;4.66;84.47;101991.38;5007678;28;20026;-73
2021/10/16 00:36:44;;;;;;;12.20;3.85;;;;;;;4.66;84.77;101984.47;5005033;28;20041;-73
2021/10/16 00:39:09;;;;;;;8.35;3.53;;;;;;;4.63;84.68;101986.41;5012378;28;20383;-74
2021/10/16 00:41:35;;;;;;;14.48;3.75;;;;;;;4.62;85.08;101993.28;4993428;28;20029;-74
2021/10/16 00:44:13;;;;;;;12.07;3.08;;;;;;;4.61;84.71;101989.03;5004193;28;20042;-73
2021/10/16 00:46:39;;;;;;;9.82;3.50;;;;;;;4.62;85.01;101985.56;5008115;28;20026;-73
2021/10/16 00:49:04;;;;;;;7.97;3.00;;;;;;;4.62;84.56;101979.63;5009480;28;20046;-73
2021/10/16 00:51:30;;;;;;;10.07;3.50;;;;;;;4.58;84.68;101985.84;4994618;28;20037;-74
2021/10/16 00:53:55;;;;;;;14.63;3.05;;;;;;;4.56;85.03;101985.94;5009189;28;20390;-73
2021/10/16 00:56:21;;;;;;;11.85;3.40;;;;;;;4.57;85.06;101985.00;5009894;28;20467;-73
2021/10/16 00:58:47;;;;;;;9.95;3.30;;;;;;;4.53;84.80;101986.09;5006300;28;20049;-74
2021/10/16 01:01:12;;;;;;;11.25;3.13;;;;;;;4.48;85.09;101986.38;5008568;28;20457;-74
2021/10/16 01:03:38;;;;;;;13.10;3.58;;;;;;;4.47;84.73;101994.97;5008157;28;20034;-74
2021/10/16 01:06:05;;;;;;;9.75;3.00;;;;;;;4.44;85.36;101981.47;5008437;28;20030;-74
2021/10/16 01:08:30;;;;;;;8.27;3.03;;;;;;;4.42;84.89;101981.56;5007187;28;21095;-73
2021/10/16 01:10:58;;;;;;;10.93;3.45;;;;;;;4.43;85.16;101979.84;5015141;28;20565;-73
2021/10/16 01:13:27;;;;;;;11.02;3.38;;;;;;;4.42;84.83;101975.59;5009027;28;20029;-73
2021/10/16 01:15:54;;;;;;;13.30;3.13;;;;;;;4.43;84.91;101979.84;5011027;28;20160;-74
2021/10/16 01:18:23;;;;;;;12.38;3.60;;;;;;;4.35;84.79;101980.28;5007310;28;20037;-74
2021/10/16 01:21:02;;;;;;;10.55;2.70;;;;;;;4.35;85.31;101980.28;5009517;28;20033;-74
2021/10/16 01:23:29;;;;;;;11.32;3.13;;;;;;;4.35;84.83;101975.16;5012276;28;20038;-74
2021/10/16 01:25:55;;;;;;;13.82;4.30;;;;;;;4.36;84.95;101975.97;5012641;28;20033;-74
2021/10/16 01:28:21;;;;;;;9.30;2.78;;;;;;;4.34;84.89;101970.91;5007329;28;20494;-74
2021/10/16 01:30:46;;;;;;;12.55;3.28;;;;;;;4.31;84.54;101965.13;5027189;28;20049;-74
2021/10/16 01:33:12;;;;;;;7.90;3.22;;;;;;;4.21;84.63;101968.19;5009333;28;20487;-74
2021/10/16 01:35:37;;;;;;;9.85;2.97;;;;;;;4.16;84.49;101966.81;5011625;28;20075;-74
2021/10/16 01:38:03;;;;;;;12.27;3.10;;;;;;;4.09;84.50;101961.19;5005823;28;20092;-74
2021/10/16 01:40:28;;;;;;;11.18;2.95;;;;;;;4.10;84.60;101955.94;5008628;28;21260;-74
2021/10/16 01:42:54;;;;;;;9.93;3.20;;;;;;;4.10;84.68;101961.09;5005570;28;20034;-74
2021/10/16 01:45:21;;;;;;;7.68;2.75;;;;;;;4.06;85.05;101956.22;5015586;28;20025;-74
2021/10/16 01:47:52;;;;;;;11.70;3.05;;;;;;;4.04;84.97;101958.88;4994050;28;20085;-74
2021/10/16 01:50:36;;;;;;;6.97;2.80;;;;;;;4.05;84.80;101957.13;5004639;28;20026;-74
2021/10/16 01:53:09;;;;;;;13.40;3.70;;;;;;;4.02;84.93;101960.69;5009499;28;20439;-73
2021/10/16 01:55:36;;;;;;;11.70;4.15;;;;;;;4.00;85.24;101969.41;4993425;28;20034;-74
2021/10/16 01:58:05;;;;;;;7.82;3.20;;;;;;;3.95;85.38;101967.06;5008474;28;20029;-74
2021/10/16 02:00:35;;;;;;;11.13;3.92;;;;;;;3.89;85.43;101968.25;5012410;28;20022;-74
2021/10/16 02:03:05;;;;;;;8.02;2.80;;;;;;;3.88;85.57;101976.00;5006941;28;20022;-74
2021/10/16 02:05:40;;;;;;;9.70;3.35;;;;;;;3.87;85.64;101979.50;5011209;28;20061;-74
2021/10/16 02:08:30;;;;;;;7.05;3.25;;;;;;;3.89;85.20;101977.69;5005883;28;20029;-74
2021/10/16 02:10:56;;;;;;;13.00;3.70;;;;;;;3.90;85.39;101979.34;5024357;28;20399;-74
2021/10/16 02:13:23;;;;;;;13.60;3.55;;;;;;;3.87;85.01;101977.75;5007188;28;20083;-74
2021/10/16 02:16:02;;;;;;;7.03;2.90;;;;;;;3.84;85.30;101975.38;5011932;28;20336;-74
2021/10/16 02:18:39;;;;;;;10.68;3.22;;;;;;;3.84;85.21;101971.97;5018991;28;20033;-74
2021/10/16 02:21:05;;;;;;;17.42;5.28;;;;;;;3.84;85.16;101983.09;4995794;28;20041;-74
2021/10/16 02:23:32;;;;;;;8.10;3.10;;;;;;;3.82;84.84;101981.50;5008888;28;20037;-73
2021/10/16 02:25:58;;;;;;;11.25;3.35;;;;;;;3.77;84.62;101968.91;4993449;28;20222;-76
2021/10/16 02:28:26;;;;;;;13.15;3.53;;;;;;;3.75;84.93;101975.03;5027129;28;20037;-73
2021/10/16 02:31:03;;;;;;;17.00;4.38;;;;;;;3.68;85.37;101977.13;5011017;28;20033;-74
2021/10/16 02:33:31;;;;;;;8.63;4.18;;;;;;;3.65;85.56;101982.41;5007541;28;20018;-74
2021/10/16 02:35:58;;;;;;;13.27;3.40;;;;;;;3.65;85.84;101979.84;5010792;28;20034;-74
2021/10/16 02:38:24;;;;;;;9.18;3.55;;;;;;;3.67;85.33;101980.56;5008445;28;20076;-74
2021/10/16 02:40:49;;;;;;;6.75;3.10;;;;;;;3.68;85.30;101982.25;5020148;28;20482;-73
2021/10/16 02:43:15;;;;;;;13.32;3.63;;;;;;;3.68;85.32;101984.81;5009842;28;20037;-74
2021/10/16 02:45:40;;;;;;;11.80;3.35;;;;;;;3.66;84.99;101972.06;5019147;28;20041;-73
2021/10/16 02:48:06;;;;;;;11.57;3.38;;;;;;;3.66;85.25;101978.94;4995737;28;20026;-74
2021/10/16 02:50:33;;;;;;;9.98;3.70;;;;;;;3.65;85.34;101975.53;5005839;28;20029;-74
2021/10/16 02:52:58;;;;;;;10.75;3.20;;;;;;;3.64;85.16;101973.88;5009843;28;20080;-73
2021/10/16 02:55:24;;;;;;;8.82;3.63;;;;;;;3.63;85.21;101974.78;5022444;28;20029;-74
2021/10/16 02:57:54;;;;;;;11.10;3.10;;;;;;;3.62;85.18;101973.13;5008006;28;20464;-76
2021/10/16 03:00:20;;;;;;;7.85;2.75;;;;;;;3.63;85.23;101977.34;5008095;28;20041;-74
2021/10/16 03:02:46;;;;;;;9.73;3.00;;;;;;;3.61;85.06;101974.03;5005036;28;20455;-76
2021/10/16 03:05:12;;;;;;;8.70;3.35;;;;;;;3.60;85.31;101974.09;5026976;28;20395;-74
2021/10/16 03:07:37;;;;;;;10.32;3.38;;;;;;;3.58;85.17;101978.50;5006424;28;20030;-73
2021/10/16 03:10:04;;;;;;;15.07;3.00;;;;;;;3.51;85.19;101978.84;5022157;28;20041;-74
2021/10/16 03:12:29;;;;;;;13.68;3.97;;;;;;;3.50;85.46;101977.19;5007706;28;20036;-75
2021/10/16 03:14:59;;;;;;;10.20;3.13;;;;;;;3.50;85.55;101973.78;4993100;28;20057;-73
2021/10/16 03:17:25;;;;;;;10.63;2.80;;;;;;;3.48;85.15;101973.88;5028804;28;20482;-73
2021/10/16 03:19:51;;;;;;;9.88;3.85;;;;;;;3.45;85.57;101978.34;4994600;28;20048;-73
2021/10/16 03:22:18;;;;;;;13.73;3.47;;;;;;;3.44;85.26;101987.75;4989462;28;20142;-73
2021/10/16 03:24:44;;;;;;;9.38;3.45;;;;;;;3.43;85.34;101986.13;5023688;28;20646;-73
2021/10/16 03:27:11;;;;;;;14.85;3.15;;;;;;;3.44;85.35;101979.25;5009290;28;20033;-73
2021/10/16 03:29:36;;;;;;;10.60;3.10;;;;;;;3.44;85.72;101986.94;4995496;28;20033;-74
2021/10/16 03:32:02;;;;;;;12.13;3.42;;;;;;;3.44;85.10;101986.94;5011958;28;20422;-73
2021/10/16 03:34:29;;;;;;;7.47;2.58;;;;;;;3.39;85.30;101986.34;5010486;28;20044;-73
2021/10/16 03:36:56;;;;;;;19.65;5.10;;;;;;;3.38;85.25;101987.25;5013300;28;20116;-76
2021/10/16 03:39:21;;;;;;;17.42;3.83;;;;;;;3.36;85.63;101983.94;5005566;28;20128;-73
2021/10/16 03:41:47;;;;;;;11.80;3.45;;;;;;;3.33;85.70;101977.22;5020389;28;20203;-73
2021/10/16 03:44:12;;;;;;;13.23;3.95;;;;;;;3.29;85.94;101984.25;5004019;28;20038;-73
2021/10/16 03:46:39;;;;;;;9.90;3.08;;;;;;;3.28;85.76;101980.03;5027117;28;20029;-74
2021/10/16 03:49:05;;;;;;;9.82;3.47;;;;;;;3.28;85.55;101980.03;5014734;28;20045;-73
2021/10/16 03:51:31;;;;;;;8.00;3.10;;;;;;;3.28;85.64;101984.34;5007811;28;20026;-73
2021/10/16 03:53:56;;;;;;;9.15;3.10;;;;;;;3.27;85.73;101980.13;5009548;28;20044;-73
2021/10/16 03:56:23;;;;;;;9.52;3.80;;;;;;;3.23;85.76;101981.19;5012704;28;20030;-74
2021/10/16 03:58:48;;;;;;;8.13;3.45;;;;;;;3.20;85.71;101979.63;4993844;28;20072;-76
2021/10/16 04:01:14;;;;;;;10.40;3.45;;;;;;;3.19;85.63;101984.81;4988762;28;21069;-76
2021/10/16 04:03:40;;;;;;;12.35;3.53;;;;;;;3.14;85.33;101987.59;5022320;28;20026;-73
2021/10/16 04:06:06;;;;;;;7.93;3.20;;;;;;;3.12;85.35;101984.28;5001912;28;20434;-73
2021/10/16 04:08:32;;;;;;;14.75;3.63;;;;;;;3.09;85.47;101985.28;5004367;28;20033;-73
2021/10/16 04:10:57;;;;;;;9.18;3.28;;;;;;;3.06;85.63;101988.00;5007490;28;20042;-73
2021/10/16 04:13:23;;;;;;;7.93;3.05;;;;;;;3.02;85.46;101990.81;5008766;28;20520;-73
2021/10/16 04:15:52;;;;;;;8.52;3.30;;;;;;;3.01;85.47;101995.09;5009163;28;20029;-73
2021/10/16 04:18:18;;;;;;;12.77;3.17;;;;;;;2.96;85.38;101997.06;5005076;28;20487;-73
2021/10/16 04:20:43;;;;;;;7.22;3.00;;;;;;;2.88;85.61;101991.47;5005914;28;20033;-73
2021/10/16 04:23:09;;;;;;;9.18;3.47;;;;;;;2.83;85.48;101998.59;5025697;28;20551;-73
2021/10/16 04:25:35;;;;;;;8.40;2.90;;;;;;;2.83;85.53;102001.97;5013902;28;20030;-73
2021/10/16 04:28:00;;;;;;;7.70;2.85;;;;;;;2.83;85.72;101999.41;4998917;28;20029;-76
2021/10/16 04:30:36;;;;;;;15.95;3.22;;;;;;;2.83;85.12;101996.03;5021147;28;20487;-73
2021/10/16 04:33:03;;;;;;;10.00;3.25;;;;;;;2.83;85.47;101994.28;5014689;28;20033;-75
2021/10/16 04:35:28;;;;;;;7.50;3.00;;;;;;;2.84;85.34;101995.13;5011544;28;20042;-73
2021/10/16 04:37:54;;;;;;;13.02;4.32;;;;;;;2.82;85.21;101989.25;5015784;28;20402;-73
2021/10/16 04:40:22;;;;;;;11.52;3.45;;;;;;;2.80;85.11;101994.44;5011230;28;20025;-73
2021/10/16 04:42:50;;;;;;;9.30;3.67;;;;;;;2.80;85.21;101994.44;5013363;28;20033;-73
2021/10/16 04:45:16;;;;;;;7.22;3.42;;;;;;;2.81;85.54;101993.53;5019492;28;20038;-73
2021/10/16 04:47:41;;;;;;;11.18;4.00;;;;;;;2.80;85.47;101989.31;5012651;28;20129;-73
2021/10/16 04:50:10;;;;;;;7.15;3.30;;;;;;;2.79;85.57;101992.78;5017925;28;20375;-73
2021/10/16 04:52:38;;;;;;;14.20;4.28;;;;;;;2.77;85.02;101991.19;5026018;28;20410;-73
2021/10/16 04:55:08;;;;;;;10.38;3.88;;;;;;;2.70;85.29;101991.50;5008962;28;20083;-73
2021/10/16 04:57:34;;;;;;;6.15;3.38;;;;;;;2.63;85.19;101987.59;5012562;28;20117;-73
2021/10/16 04:59:59;;;;;;;9.55;3.67;;;;;;;2.59;85.51;101990.38;5011852;28;20021;-73
2021/10/16 05:02:43;;;;;;;7.88;3.40;;;;;;;2.54;85.84;101985.47;5005728;28;20742;-73
2021/10/16 05:05:10;;;;;;;13.13;4.55;;;;;;;2.51;85.70;101988.19;5025277;28;20092;-73
2021/10/16 05:07:38;;;;;;;8.23;3.38;;;;;;;2.48;85.60;101986.59;4997051;28;20066;-73
2021/10/16 05:10:22;;;;;;;8.88;3.95;;;;;;;2.46;85.89;101988.41;5008118;28;20415;-73
2021/10/16 05:12:47;;;;;;;10.10;3.13;;;;;;;2.44;85.71;101995.34;5013870;28;20197;-73
2021/10/16 05:15:13;;;;;;;11.88;3.45;;;;;;;2.45;85.80;101994.44;5008428;28;20032;-73
2021/10/16 05:17:39;;;;;;;7.38;3.45;;;;;;;2.44;85.57;101987.66;5029993;28;20089;-75
2021/10/16 05:20:11;;;;;;;;;;;;;;;2.45;85.35;101991.88;5031694;28;20033;-73
2021/10/16 05:22:46;;;;;;;7.97;3.63;;;;;;;2.46;85.38;101997.81;5013985;28;20442;-73
2021/10/16 05:25:12;;;;;;;10.02;4.15;;;;;;;2.43;85.31;101998.81;5012447;28;20422;-75
2021/10/16 05:27:38;;;;;;;9.20;3.67;;;;;;;2.39;85.28;101994.72;5010314;28;20025;-73
2021/10/16 05:30:06;;;;;;;12.77;4.60;;;;;;;2.37;85.17;101996.53;5027935;28;20065;-75
2021/10/16 05:32:35;;;;;;;6.82;3.70;;;;;;;2.37;85.65;101993.97;5012137;28;20034;-75
2021/10/16 05:35:01;;;;;;;9.07;3.72;;;;;;;2.36;85.67;102000.00;5006862;28;20365;-74
2021/10/16 05:37:27;;;;;;;7.45;3.63;;;;;;;2.37;85.45;102004.22;5013412;28;20034;-75
2021/10/16 05:39:53;;;;;;;10.43;3.90;;;;;;;2.38;85.59;102007.63;5013242;28;20187;-73
2021/10/16 05:42:20;;;;;;;7.07;3.38;;;;;;;2.35;85.63;102003.44;5010022;28;20033;-73
2021/10/16 05:44:46;;;;;;;10.73;3.67;;;;;;;2.33;85.67;102000.13;5010241;28;20041;-76
2021/10/16 05:47:11;;;;;;;13.07;4.38;;;;;;;2.32;85.63;102006.19;5009366;28;20042;-75
2021/10/16 05:49:38;;;;;;;12.38;3.90;;;;;;;2.31;85.49;102002.75;5009137;28;20691;-75
2021/10/16 05:52:04;;;;;;;11.52;4.00;;;;;;;2.30;85.46;102006.25;5021040;28;20088;-73
2021/10/16 05:54:30;;;;;;;11.93;3.90;;;;;;;2.29;85.53;102004.56;4991600;28;20032;-75
2021/10/16 05:56:55;;;;;;;9.32;4.28;;;;;;;2.29;85.57;102011.44;5015548;28;20030;-73
2021/10/16 05:59:21;;;;;;;12.20;4.40;;;;;;;2.26;85.59;102011.56;5009056;28;20457;-73
2021/10/16 06:01:47;;;;;;;7.65;3.88;;;;;;;2.25;85.60;102012.47;5031771;28;20027;-73
2021/10/16 06:04:12;;;;;;;11.25;4.07;;;;;;;2.24;85.12;102003.97;5010173;28;20026;-75
2021/10/16 06:06:38;;;;;;;8.60;3.85;;;;;;;2.24;85.19;102003.13;5014590;28;20088;-73
2021/10/16 06:09:04;;;;;;;13.82;4.82;;;;;;;2.19;85.37;102010.22;5011281;28;20129;-73
2021/10/16 06:11:29;;;;;;;10.30;3.80;;;;;;;2.18;85.46;101998.31;5012354;28;20545;-76
2021/10/16 06:13:55;;;;;;;12.57;5.07;;;;;;;2.19;85.31;102005.09;4999864;28;20037;-74
2021/10/16 06:16:21;;;;;;;10.25;3.80;;;;;;;2.20;85.86;102005.00;5027710;28;20262;-73
2021/10/16 06:18:46;;;;;;;11.48;4.22;;;;;;;2.22;85.46;102010.06;5011432;28;20095;-75
2021/10/16 06:21:13;;;;;;;12.95;3.97;;;;;;;2.19;85.77;102015.34;5014704;28;20030;-75
2021/10/16 06:23:42;;;;;;;10.90;4.15;;;;;;;2.17;85.71;102012.00;5008104;28;20064;-73
2021/10/16 06:26:10;;;;;;;8.45;3.85;;;;;;;2.16;86.12;102018.03;4991442;28;20604;-75
2021/10/16 06:28:35;;;;;;;9.40;4.10;;;;;;;2.18;86.05;102019.59;5023639;28;20029;-72
2021/10/16 06:31:01;;;;;;;7.13;4.28;;;;;;;2.21;86.21;102026.34;5013498;28;20080;-75
2021/10/16 06:33:28;;;;;;;9.55;3.92;;;;;;;2.23;85.96;102020.22;5011918;28;20116;-73
2021/10/16 06:35:54;;;;;;;7.72;4.18;;;;;;;2.29;86.11;102021.66;4994175;28;20414;-75
2021/10/16 06:38:29;;;;;;;14.82;4.03;;;;;;;2.35;85.96;102026.50;5015089;28;20807;-75
2021/10/16 06:40:55;;;;;;;18.33;4.93;;;;;;;2.40;85.97;102027.13;5007274;28;20037;-75
2021/10/16 06:43:39;;;;;;;17.67;5.03;;;;;;;2.45;86.13;102030.28;5006617;28;20561;-75
2021/10/16 06:46:23;;;;;;;12.02;4.70;;;;;;;2.49;86.28;102029.25;5009485;28;20059;-75
2021/10/16 06:49:08;;;;;;;9.57;4.90;;;;;;;2.53;86.60;102035.88;5011921;28;20048;-73
2021/10/16 06:51:33;;;;;;;13.55;4.72;;;;;;;2.57;86.73;102031.44;5023224;28;20018;-73
2021/10/16 06:54:01;;;;;;;14.70;5.03;;;;;;;2.61;87.15;102043.19;5011777;28;20033;-73
2021/10/16 06:56:27;;;;;;;8.82;4.43;;;;;;;2.67;86.81;102042.88;4995974;28;20432;-74
2021/10/16 06:58:53;;;;;;;8.85;4.68;;;;;;;2.71;86.84;102038.44;5020219;28;20072;-74
2021/10/16 07:01:19;;;;;;;9.45;4.88;;;;;;;2.79;86.92;102045.75;5012154;28;20117;-74
2021/10/16 07:03:51;;;;;;;10.25;5.18;;;;;;;2.85;87.40;102037.78;5010468;28;20139;-76
2021/10/16 07:06:18;;;;;;;14.93;6.38;;;;;;;2.93;87.21;102036.47;5026043;28;20038;-74
2021/10/16 07:08:44;;;;;;;13.57;5.90;;;;;;;3.03;87.54;102038.59;5010193;28;20475;-77
2021/10/16 07:11:09;;;;;;;14.30;6.30;;;;;;;3.12;87.70;102040.69;5014124;28;20118;-74
2021/10/16 07:13:35;;;;;;;14.13;5.70;;;;;;;3.24;87.53;102040.09;5007194;28;20034;-77
2021/10/16 07:16:01;;;;;;;15.52;5.53;;;;;;;3.42;87.86;102043.44;5006338;28;20049;-74
2021/10/16 07:18:27;;;;;;;15.25;6.95;;;;;;;3.65;88.31;102042.22;5010168;28;20165;-74
2021/10/16 07:20:53;;;;;;;15.07;6.72;;;;;;;3.95;88.35;102038.94;4995699;28;20029;-74
2021/10/16 07:23:26;;;;;;;14.13;6.60;;;;;;;4.33;87.63;102045.47;5007703;28;20041;-77
2021/10/16 07:25:52;;;;;;;16.77;7.40;;;;;;;4.66;87.44;102051.28;5016307;28;20034;-74
2021/10/16 07:28:18;;;;;;;15.85;7.40;;;;;;;4.94;86.95;102044.56;5007349;28;20395;-73
2021/10/16 07:30:43;;;;;;;17.85;7.45;;;;;;;5.20;86.22;102039.66;5008954;28;20034;-74
2021/10/16 07:33:12;;;;;;;21.05;7.85;;;;;;;5.54;85.24;102047.91;5010992;28;20438;-76
2021/10/16 07:35:37;;;;;;;20.48;8.77;;;;;;;5.79;85.21;102050.66;5010081;28;20041;-74
2021/10/16 07:38:03;;;;;;;29.83;10.07;;;;;;;6.02;85.04;102043.28;5002959;28;20034;-73
2021/10/16 07:40:28;;;;;;;18.88;8.75;;;;;;;6.18;84.11;102038.84;5017020;28;20041;-73
2021/10/16 07:42:54;;;;;;;26.20;10.38;;;;;;;6.28;83.77;102046.78;4989114;28;20014;-74
2021/10/16 07:45:19;;;;;;;26.63;10.23;;;;;;;6.58;83.92;102044.00;5012085;28;20037;-73
2021/10/16 07:47:45;;;;;;;30.38;9.73;;;;;;;6.91;82.22;102049.63;5023911;28;20513;-73
2021/10/16 07:50:10;;;;;;;33.75;10.98;;;;;;;7.29;81.15;102048.81;5008379;28;20034;-74
2021/10/16 07:52:37;;;;;;;28.15;9.10;;;;;;;7.68;80.04;102037.50;5010736;28;20037;-73
2021/10/16 07:55:03;;;;;;;28.30;10.48;;;;;;;8.19;77.93;102052.00;5012756;28;20041;-74
2021/10/16 07:57:29;;;;;;;23.95;8.95;;;;;;;8.50;75.87;102048.09;5006801;28;20048;-75
2021/10/16 07:59:54;;;;;;;27.02;10.75;;;;;;;8.73;75.54;102042.97;5009277;28;20049;-75
2021/10/16 08:02:20;;;;;;;24.85;9.20;;;;;;;9.20;74.26;102046.34;5017038;28;20029;-74
2021/10/16 08:04:45;;;;;;;26.27;10.23;;;;;;;9.53;72.28;102047.28;4996633;28;20152;-77
2021/10/16 08:07:11;;;;;;;24.35;8.88;;;;;;;9.81;71.83;102038.19;5005102;28;20410;-75
2021/10/16 08:09:36;;;;;;;23.27;8.73;;;;;;;9.75;70.03;102043.84;4998809;28;20030;-73
2021/10/16 08:12:02;;;;;;;17.45;7.07;;;;;;;9.82;70.71;102041.63;4994268;28;20029;-76
2021/10/16 08:14:27;;;;;;;21.58;8.23;;;;;;;9.80;70.18;102048.69;5011862;28;20057;-76
2021/10/16 08:16:53;;;;;;;20.35;7.65;;;;;;;10.05;69.80;102038.03;4992986;28;20461;-77
2021/10/16 08:19:18;;;;;;;23.50;7.97;;;;;;;10.10;69.60;102042.84;4992797;28;20041;-76
2021/10/16 08:21:44;;;;;;;25.65;9.02;;;;;;;10.14;69.01;102045.06;5013437;28;20030;-76
2021/10/16 08:24:09;;;;;;;23.05;9.52;;;;;;;10.00;70.06;102050.53;4996535;28;20029;-76
2021/10/16 08:26:35;;;;;;;29.98;9.10;;;;;;;10.29;69.14;102048.19;5012015;28;20535;-76
2021/10/16 08:29:00;;;;;;;24.85;9.27;;;;;;;10.28;68.36;102045.72;5008215;28;20076;-77
2021/10/16 08:31:26;;;;;;;28.30;10.85;;;;;;;10.11;69.63;102054.84;5007184;28;20034;-76
2021/10/16 08:33:51;;;;;;;22.58;10.00;;;;;;;10.28;68.89;102043.97;5007828;28;20029;-76
2021/10/16 08:36:17;;;;;;;28.08;10.77;;;;;;;10.47;68.05;102040.75;5011891;28;20038;-76
2021/10/16 08:38:42;;;;;;;29.63;9.35;;;;;;;10.50;69.21;102042.25;5008506;28;20026;-75
2021/10/16 08:41:12;;;;;;;31.92;9.82;;;;;;;10.68;68.38;102043.34;4997586;28;20673;-76
2021/10/16 08:43:39;;;;;;;29.63;9.18;;;;;;;10.78;67.19;102043.41;5011305;28;20036;-76
2021/10/16 08:46:04;;;;;;;33.88;9.70;;;;;;;11.20;66.41;102042.53;5008057;28;20551;-76
2021/10/16 08:48:30;;;;;;;35.83;9.68;;;;;;;11.30;65.97;102033.00;5017040;28;20033;-76
2021/10/16 08:50:57;;;;;;;33.10;8.60;;;;;;;11.29;66.00;102037.38;5014091;28;20041;-75
2021/10/16 08:53:23;;;;;;;32.67;9.32;;;;;;;11.19;66.08;102038.28;5014599;28;20057;-75
2021/10/16 08:55:50;;;;;;;24.65;8.52;;;;;;;11.19;66.14;102039.13;5014074;28;20041;-75
2021/10/16 08:58:15;;;;;;;40.17;9.30;;;;;;;11.21;66.36;102034.63;5005399;28;20045;-75
2021/10/16 09:00:51;;;;;;;29.35;8.63;;;;;;;11.03;67.30;102038.75;5009051;28;20026;-75
2021/10/16 09:03:17;;;;;;;28.88;9.45;;;;;;;10.83;68.88;102038.66;5020786;28;20041;-75
2021/10/16 09:06:16;;;;;;;30.27;8.73;;;;;;;10.60;69.82;102037.13;5012704;28;20449;-75
2021/10/16 09:08:53;;;;;;;42.03;9.98;;;;;;;10.40;70.41;102039.59;5006701;28;20132;-75
2021/10/16 09:11:26;;;;;;;36.75;9.40;;;;;;;10.28;70.95;102038.78;5011927;28;20137;-75
2021/10/16 09:14:02;;;;;;;28.98;9.45;;;;;;;10.29;71.49;102040.41;5007090;28;20029;-75
2021/10/16 09:16:28;;;;;;;43.55;11.02;;;;;;;10.18;74.30;102039.66;5015280;28;20034;-75
2021/10/16 09:19:17;;;;;;;33.05;8.93;;;;;;;10.10;72.50;102042.84;5009980;28;20534;-75
2021/10/16 09:21:54;;;;;;;30.42;9.02;;;;;;;10.20;71.83;102041.16;5014437;28;20487;-75
2021/10/16 09:24:24;;;;;;;33.38;9.45;;;;;;;10.17;71.88;102040.56;5012480;28;20499;-75
2021/10/16 09:26:57;;;;;;;38.60;8.60;;;;;;;10.13;74.03;102042.59;5022921;28;20045;-75
2021/10/16 09:29:23;;;;;;;39.70;9.52;;;;;;;10.19;73.60;102049.91;5013999;28;20057;-75
2021/10/16 09:31:52;;;;;;;42.47;10.00;;;;;;;10.42;72.71;102050.66;5019032;28;20041;-75
2021/10/16 09:34:23;;;;;;;39.15;11.50;;;;;;;10.44;72.46;102037.56;5017196;28;20069;-74
2021/10/16 09:36:49;;;;;;;35.85;10.00;;;;;;;10.46;72.09;102048.63;5015925;28;20037;-76
2021/10/16 09:39:17;;;;;;;36.75;8.57;;;;;;;10.52;72.55;102046.34;5016086;28;20554;-74
2021/10/16 09:41:43;;;;;;;36.17;10.82;;;;;;;10.56;72.12;102046.13;5015669;28;20033;-75
2021/10/16 09:44:23;;;;;;;28.80;8.07;;;;;;;10.59;71.67;102044.09;5015000;28;20038;-75
2021/10/16 09:47:18;;;;;;;38.22;10.00;;;;;;;10.66;71.96;102047.00;5015567;28;20505;-75
2021/10/16 09:49:58;;;;;;;43.75;8.73;;;;;;;10.69;72.17;102041.56;4989323;28;20474;-74
2021/10/16 09:52:33;;;;;;;24.80;7.85;;;;;;;10.74;72.44;102043.75;5013650;28;20021;-75
2021/10/16 09:54:58;;;;;;;30.85;8.98;;;;;;;10.65;72.90;102047.97;5010026;28;20083;-74
2021/10/16 09:57:25;;;;;;;28.60;8.73;;;;;;;10.77;71.94;102051.31;5009301;28;20029;-75
2021/10/16 09:59:51;;;;;;;38.45;10.32;;;;;;;10.84;71.53;102060.22;5012909;28;20034;-75
2021/10/16 10:02:17;;;;;;;33.55;8.25;;;;;;;11.03;70.06;102051.75;5009510;28;20092;-75
2021/10/16 10:04:46;;;;;;;36.92;8.48;;;;;;;10.82;71.38;102060.34;5016734;28;20038;-75
2021/10/16 10:07:13;;;;;;;31.02;9.35;;;;;;;10.76;71.10;102058.28;5010051;28;20092;-74
2021/10/16 10:09:41;;;;;;;31.15;6.70;;;;;;;11.03;71.37;102056.94;5029083;28;20141;-75
2021/10/16 10:12:11;;;;;;;32.42;7.88;;;;;;;11.03;71.36;102057.75;5016123;28;20486;-75
2021/10/16 10:14:44;;;;;;;31.38;7.18;;;;;;;11.22;69.61;102056.19;5013772;28;20037;-75
2021/10/16 10:17:11;;;;;;;29.90;7.05;;;;;;;11.24;71.57;102051.69;5006450;28;20061;-75
2021/10/16 10:19:47;;;;;;;27.70;6.35;;;;;;;11.43;68.97;102053.56;4998814;28;20033;-75
2021/10/16 10:22:17;;;;;;;34.42;6.93;;;;;;;11.26;69.05;102048.03;5009790;28;20030;-75
2021/10/16 10:24:51;;;;;;;30.25;5.70;;;;;;;11.24;68.68;102052.50;5020373;28;20026;-75
2021/10/16 10:27:18;;;;;;;23.50;4.88;;;;;;;11.24;67.35;102049.09;5007878;28;20037;-75
2021/10/16 10:29:46;;;;;;;31.60;6.13;;;;;;;11.32;68.12;102051.91;5007565;28;20060;-74
2021/10/16 10:32:12;;;;;;;33.15;5.68;;;;;;;11.26;68.83;102045.44;5008246;28;20125;-75
2021/10/16 10:34:39;;;;;;;28.45;5.80;;;;;;;11.23;69.77;102042.28;5010800;28;20164;-75
2021/10/16 10:37:13;;;;;;;26.80;7.10;;;;;;;11.30;70.06;102040.78;5008790;28;20037;-75
2021/10/16 10:39:42;;;;;;;25.95;6.65;;;;;;;11.42;69.15;102044.94;5010996;28;20196;-75
2021/10/16 10:42:13;;;;;;;21.60;5.90;;;;;;;11.42;68.46;102044.94;5012835;28;20037;-75
2021/10/16 10:44:42;;;;;;;30.67;5.50;;;;;;;11.53;67.60;102035.41;5010924;28;20066;-76
2021/10/16 10:47:19;;;;;;;24.60;5.53;;;;;;;11.73;67.77;102039.69;5009722;28;20086;-75
2021/10/16 10:49:45;;;;;;;25.92;4.43;;;;;;;11.70;67.48;102039.97;5008366;28;20057;-75
2021/10/16 10:52:11;;;;;;;20.90;5.43;;;;;;;11.77;67.00;102035.91;5014459;28;20029;-75
2021/10/16 10:54:38;;;;;;;31.05;6.50;;;;;;;11.65;68.20;102039.56;4995779;28;20026;-75
2021/10/16 10:57:03;;;;;;;20.88;6.30;;;;;;;11.74;68.12;102032.75;5011516;28;20111;-76
2021/10/16 10:59:58;;;;;;;28.38;6.65;;;;;;;11.75;66.44;102023.97;4992138;28;20486;-75
2021/10/16 11:02:32;;;;;;;28.35;5.82;;;;;;;11.55;67.46;102020.53;5005708;28;20401;-76
2021/10/16 11:04:59;;;;;;;23.20;5.75;;;;;;;11.65;68.48;102021.38;5004546;28;20044;-75
2021/10/16 11:07:44;;;;;;;20.52;5.43;;;;;;;11.95;67.24;102020.50;5011473;28;20104;-76
2021/10/16 11:10:11;;;;;;;24.75;6.20;;;;;;;12.25;65.30;102016.13;5034192;28;20037;-75
2021/10/16 11:12:39;;;;;;;24.40;5.00;;;;;;;12.10;66.28;102013.13;5010419;28;20029;-75
2021/10/16 11:15:06;;;;;;;22.77;5.55;;;;;;;12.35;63.62;102014.34;5010954;28;20031;-75
2021/10/16 11:17:37;;;;;;;20.67;4.45;;;;;;;12.48;63.08;102015.84;5005523;28;20037;-74
2021/10/16 11:20:05;;;;;;;19.75;4.60;;;;;;;12.20;63.10;102011.31;4989834;28;20587;-75
2021/10/16 11:22:47;;;;;;;18.85;4.05;;;;;;;12.24;63.32;102011.88;5017967;28;20121;-75
2021/10/16 11:25:15;;;;;;;17.75;4.65;;;;;;;12.34;61.27;102010.09;5011570;28;20061;-76
2021/10/16 11:27:40;;;;;;;16.77;3.75;;;;;;;12.61;59.14;101998.97;5014029;28;20482;-76